sensor_id;sensor_type;location;lat;lon;timestamp;temperature;humidity
62589;DHT22;58504;48.770;9.148;2022-07-03T00:01:52;23.40;56.30
62589;DHT22;58504;48.770;9.148;2022-07-03T00:04:19;23.40;56.30
62589;DHT22;58504;48.770;9.148;2022-07-03T00:06:47;23.40;56.30
62589;DHT22;58504;48.770;9.148;2022-07-03T00:09:15;23.40;56.30
62589;DHT22;58504;48.770;9.148;2022-07-03T00:11:42;23.40;56.30
62589;DHT22;58504;48.770;9.148;2022-07-03T00:14:09;23.40;56.30
62589;DHT22;58504;48.770;9.148;2022-07-03T00:16:36;23.40;56.30
62589;DHT22;58504;48.770;9.148;2022-07-03T00:19:03;23.40;56.30
62589;DHT22;58504;48.770;9.148;2022-07-03T00:21:34;23.40;56.30
62589;DHT22;58504;48.770;9.148;2022-07-03T00:24:03;23.40;56.30
62589;DHT22;58504;48.770;9.148;2022-07-03T00:26:34;23.40;56.40
62589;DHT22;58504;48.770;9.148;2022-07-03T00:29:02;23.40;56.40
62589;DHT22;58504;48.770;9.148;2022-07-03T00:31:32;23.40;56.40
62589;DHT22;58504;48.770;9.148;2022-07-03T00:34:00;23.40;56.30
62589;DHT22;58504;48.770;9.148;2022-07-03T00:36:30;23.40;56.40
62589;DHT22;58504;48.770;9.148;2022-07-03T00:39:00;23.40;56.40
62589;DHT22;58504;48.770;9.148;2022-07-03T00:41:28;23.40;56.40
62589;DHT22;58504;48.770;9.148;2022-07-03T00:43:57;23.40;56.40
62589;DHT22;58504;48.770;9.148;2022-07-03T00:46:26;23.40;56.40
62589;DHT22;58504;48.770;9.148;2022-07-03T00:48:54;23.40;56.50
62589;DHT22;58504;48.770;9.148;2022-07-03T00:51:23;23.40;56.50
62589;DHT22;58504;48.770;9.148;2022-07-03T00:53:52;23.40;56.50
62589;DHT22;58504;48.770;9.148;2022-07-03T00:56:25;23.40;56.50
62589;DHT22;58504;48.770;9.148;2022-07-03T00:58:53;23.40;56.60
62589;DHT22;58504;48.770;9.148;2022-07-03T01:01:22;23.40;56.50
62589;DHT22;58504;48.770;9.148;2022-07-03T01:03:59;23.40;56.50
62589;DHT22;58504;48.770;9.148;2022-07-03T01:06:28;23.40;57.10
62589;DHT22;58504;48.770;9.148;2022-07-03T01:08:59;23.40;56.50
62589;DHT22;58504;48.770;9.148;2022-07-03T01:11:33;23.40;56.60
62589;DHT22;58504;48.770;9.148;2022-07-03T01:14:08;23.40;56.60
62589;DHT22;58504;48.770;9.148;2022-07-03T01:16:49;23.40;56.60
62589;DHT22;58504;48.770;9.148;2022-07-03T01:19:30;23.40;56.50
62589;DHT22;58504;48.770;9.148;2022-07-03T01:22:13;23.40;56.60
62589;DHT22;58504;48.770;9.148;2022-07-03T01:24:53;23.40;56.60
62589;DHT22;58504;48.770;9.148;2022-07-03T01:27:28;23.40;56.60
62589;DHT22;58504;48.770;9.148;2022-07-03T01:30:05;23.40;56.60
62589;DHT22;58504;48.770;9.148;2022-07-03T01:32:36;23.40;56.60
62589;DHT22;58504;48.770;9.148;2022-07-03T01:35:07;23.30;56.50
62589;DHT22;58504;48.770;9.148;2022-07-03T01:37:35;23.40;56.50
62589;DHT22;58504;48.770;9.148;2022-07-03T01:40:05;23.40;56.50
62589;DHT22;58504;48.770;9.148;2022-07-03T01:42:35;23.40;56.60
62589;DHT22;58504;48.770;9.148;2022-07-03T01:45:05;23.40;56.50
62589;DHT22;58504;48.770;9.148;2022-07-03T01:47:34;23.40;56.60
62589;DHT22;58504;48.770;9.148;2022-07-03T01:50:02;23.30;56.50
62589;DHT22;58504;48.770;9.148;2022-07-03T01:52:31;23.30;56.50
62589;DHT22;58504;48.770;9.148;2022-07-03T01:55:00;23.40;56.60
62589;DHT22;58504;48.770;9.148;2022-07-03T01:57:36;23.40;56.60
62589;DHT22;58504;48.770;9.148;2022-07-03T02:00:05;23.40;56.60
62589;DHT22;58504;48.770;9.148;2022-07-03T02:02:33;23.40;56.70
62589;DHT22;58504;48.770;9.148;2022-07-03T02:05:06;23.30;56.60
62589;DHT22;58504;48.770;9.148;2022-07-03T02:07:36;23.30;56.50
62589;DHT22;58504;48.770;9.148;2022-07-03T02:10:07;23.40;56.60
62589;DHT22;58504;48.770;9.148;2022-07-03T02:12:45;23.30;56.60
62589;DHT22;58504;48.770;9.148;2022-07-03T02:15:17;23.40;56.70
62589;DHT22;58504;48.770;9.148;2022-07-03T02:17:45;23.40;56.70
62589;DHT22;58504;48.770;9.148;2022-07-03T02:20:15;23.30;56.60
62589;DHT22;58504;48.770;9.148;2022-07-03T02:22:44;23.30;56.60
62589;DHT22;58504;48.770;9.148;2022-07-03T02:25:18;23.30;56.60
62589;DHT22;58504;48.770;9.148;2022-07-03T02:27:51;23.30;56.60
62589;DHT22;58504;48.770;9.148;2022-07-03T02:30:22;23.40;56.80
62589;DHT22;58504;48.770;9.148;2022-07-03T02:32:52;23.30;56.70
62589;DHT22;58504;48.770;9.148;2022-07-03T02:35:23;23.30;56.70
62589;DHT22;58504;48.770;9.148;2022-07-03T02:37:58;23.30;56.70
62589;DHT22;58504;48.770;9.148;2022-07-03T02:40:28;23.30;56.70
62589;DHT22;58504;48.770;9.148;2022-07-03T02:43:12;23.30;56.80
62589;DHT22;58504;48.770;9.148;2022-07-03T02:45:44;23.30;56.80
62589;DHT22;58504;48.770;9.148;2022-07-03T02:48:21;23.30;56.80
62589;DHT22;58504;48.770;9.148;2022-07-03T02:50:54;23.30;56.80
62589;DHT22;58504;48.770;9.148;2022-07-03T02:53:28;23.30;56.80
62589;DHT22;58504;48.770;9.148;2022-07-03T02:56:02;23.30;56.80
62589;DHT22;58504;48.770;9.148;2022-07-03T02:58:55;23.30;56.80
62589;DHT22;58504;48.770;9.148;2022-07-03T03:01:24;23.40;56.90
62589;DHT22;58504;48.770;9.148;2022-07-03T03:04:06;23.30;56.80
62589;DHT22;58504;48.770;9.148;2022-07-03T03:06:36;23.30;56.80
62589;DHT22;58504;48.770;9.148;2022-07-03T03:09:04;23.30;56.80
62589;DHT22;58504;48.770;9.148;2022-07-03T03:11:39;23.30;56.80
62589;DHT22;58504;48.770;9.148;2022-07-03T03:14:11;23.30;57.40
62589;DHT22;58504;48.770;9.148;2022-07-03T03:16:47;23.30;56.90
62589;DHT22;58504;48.770;9.148;2022-07-03T03:19:14;23.30;56.80
62589;DHT22;58504;48.770;9.148;2022-07-03T03:21:50;23.30;56.80
62589;DHT22;58504;48.770;9.148;2022-07-03T03:24:18;23.30;56.90
62589;DHT22;58504;48.770;9.148;2022-07-03T03:26:45;23.30;56.90
62589;DHT22;58504;48.770;9.148;2022-07-03T03:29:13;23.30;56.80
62589;DHT22;58504;48.770;9.148;2022-07-03T03:31:40;23.30;56.80
62589;DHT22;58504;48.770;9.148;2022-07-03T03:34:07;23.30;56.90
62589;DHT22;58504;48.770;9.148;2022-07-03T03:36:36;23.30;56.90
62589;DHT22;58504;48.770;9.148;2022-07-03T03:39:02;23.30;56.90
62589;DHT22;58504;48.770;9.148;2022-07-03T03:41:30;23.30;56.90
62589;DHT22;58504;48.770;9.148;2022-07-03T03:43:57;23.30;56.90
62589;DHT22;58504;48.770;9.148;2022-07-03T03:46:25;23.30;56.90
62589;DHT22;58504;48.770;9.148;2022-07-03T03:48:52;23.30;56.90
62589;DHT22;58504;48.770;9.148;2022-07-03T03:51:19;23.30;56.90
62589;DHT22;58504;48.770;9.148;2022-07-03T03:53:46;23.30;56.90
62589;DHT22;58504;48.770;9.148;2022-07-03T03:56:13;23.30;56.90
62589;DHT22;58504;48.770;9.148;2022-07-03T03:58:42;23.30;56.90
62589;DHT22;58504;48.770;9.148;2022-07-03T04:01:10;23.30;56.90
62589;DHT22;58504;48.770;9.148;2022-07-03T04:03:39;23.30;56.90
62589;DHT22;58504;48.770;9.148;2022-07-03T04:06:06;23.30;56.90
62589;DHT22;58504;48.770;9.148;2022-07-03T04:08:33;23.30;56.90
62589;DHT22;58504;48.770;9.148;2022-07-03T04:11:00;23.30;56.90
62589;DHT22;58504;48.770;9.148;2022-07-03T04:13:27;23.30;56.90
62589;DHT22;58504;48.770;9.148;2022-07-03T04:15:54;23.30;56.80
62589;DHT22;58504;48.770;9.148;2022-07-03T04:18:21;23.30;56.80
62589;DHT22;58504;48.770;9.148;2022-07-03T04:20:50;23.30;56.90
62589;DHT22;58504;48.770;9.148;2022-07-03T04:23:17;23.30;56.80
62589;DHT22;58504;48.770;9.148;2022-07-03T04:25:44;23.30;56.80
62589;DHT22;58504;48.770;9.148;2022-07-03T04:28:11;23.40;56.80
62589;DHT22;58504;48.770;9.148;2022-07-03T04:30:37;23.40;56.80
62589;DHT22;58504;48.770;9.148;2022-07-03T04:33:04;23.40;56.80
62589;DHT22;58504;48.770;9.148;2022-07-03T04:35:31;23.40;56.70
62589;DHT22;58504;48.770;9.148;2022-07-03T04:37:59;23.40;56.70
62589;DHT22;58504;48.770;9.148;2022-07-03T04:40:26;23.40;56.60
62589;DHT22;58504;48.770;9.148;2022-07-03T04:42:53;23.50;56.80
62589;DHT22;58504;48.770;9.148;2022-07-03T04:45:20;23.50;57.10
62589;DHT22;58504;48.770;9.148;2022-07-03T04:47:47;23.50;56.50
62589;DHT22;58504;48.770;9.148;2022-07-03T04:50:14;23.50;56.40
62589;DHT22;58504;48.770;9.148;2022-07-03T04:52:41;23.50;56.50
62589;DHT22;58504;48.770;9.148;2022-07-03T04:55:09;23.60;56.50
62589;DHT22;58504;48.770;9.148;2022-07-03T04:57:36;23.60;56.40
62589;DHT22;58504;48.770;9.148;2022-07-03T05:00:04;23.60;56.40
62589;DHT22;58504;48.770;9.148;2022-07-03T05:02:36;23.60;56.40
62589;DHT22;58504;48.770;9.148;2022-07-03T05:05:04;23.60;56.40
62589;DHT22;58504;48.770;9.148;2022-07-03T05:07:31;23.60;56.30
62589;DHT22;58504;48.770;9.148;2022-07-03T05:09:58;23.60;56.30
62589;DHT22;58504;48.770;9.148;2022-07-03T05:12:26;23.60;56.30
62589;DHT22;58504;48.770;9.148;2022-07-03T05:14:53;23.70;56.30
62589;DHT22;58504;48.770;9.148;2022-07-03T05:17:19;23.60;56.30
62589;DHT22;58504;48.770;9.148;2022-07-03T05:19:46;23.60;56.30
62589;DHT22;58504;48.770;9.148;2022-07-03T05:22:13;23.60;56.20
62589;DHT22;58504;48.770;9.148;2022-07-03T05:24:40;23.70;56.30
62589;DHT22;58504;48.770;9.148;2022-07-03T05:27:07;23.70;56.30
62589;DHT22;58504;48.770;9.148;2022-07-03T05:29:35;23.70;56.30
62589;DHT22;58504;48.770;9.148;2022-07-03T05:32:02;23.70;56.20
62589;DHT22;58504;48.770;9.148;2022-07-03T05:34:29;23.70;56.10
62589;DHT22;58504;48.770;9.148;2022-07-03T05:36:55;23.70;56.10
62589;DHT22;58504;48.770;9.148;2022-07-03T05:39:22;23.70;56.00
62589;DHT22;58504;48.770;9.148;2022-07-03T05:41:58;23.70;56.10
62589;DHT22;58504;48.770;9.148;2022-07-03T05:44:25;23.70;56.10
62589;DHT22;58504;48.770;9.148;2022-07-03T05:46:53;23.70;56.00
62589;DHT22;58504;48.770;9.148;2022-07-03T05:49:20;23.80;56.10
62589;DHT22;58504;48.770;9.148;2022-07-03T05:51:47;23.80;56.10
62589;DHT22;58504;48.770;9.148;2022-07-03T05:54:13;23.80;56.10
62589;DHT22;58504;48.770;9.148;2022-07-03T05:56:40;23.80;56.00
62589;DHT22;58504;48.770;9.148;2022-07-03T05:59:07;23.80;55.90
62589;DHT22;58504;48.770;9.148;2022-07-03T06:01:34;23.80;55.90
62589;DHT22;58504;48.770;9.148;2022-07-03T06:04:02;23.80;55.80
62589;DHT22;58504;48.770;9.148;2022-07-03T06:06:29;23.80;55.80
62589;DHT22;58504;48.770;9.148;2022-07-03T06:08:55;23.90;55.80
62589;DHT22;58504;48.770;9.148;2022-07-03T06:11:22;23.90;55.80
62589;DHT22;58504;48.770;9.148;2022-07-03T06:13:49;23.90;55.80
62589;DHT22;58504;48.770;9.148;2022-07-03T06:16:16;23.90;55.80
62589;DHT22;58504;48.770;9.148;2022-07-03T06:18:43;24.00;55.80
62589;DHT22;58504;48.770;9.148;2022-07-03T06:21:12;24.00;55.80
62589;DHT22;58504;48.770;9.148;2022-07-03T06:23:39;24.00;55.70
62589;DHT22;58504;48.770;9.148;2022-07-03T06:26:06;24.00;55.70
62589;DHT22;58504;48.770;9.148;2022-07-03T06:28:32;24.00;56.20
62589;DHT22;58504;48.770;9.148;2022-07-03T06:30:59;24.10;55.70
62589;DHT22;58504;48.770;9.148;2022-07-03T06:33:26;24.10;55.60
62589;DHT22;58504;48.770;9.148;2022-07-03T06:35:53;24.20;55.40
62589;DHT22;58504;48.770;9.148;2022-07-03T06:38:21;24.20;55.30
62589;DHT22;58504;48.770;9.148;2022-07-03T06:40:47;24.40;55.30
62589;DHT22;58504;48.770;9.148;2022-07-03T06:43:14;24.40;55.00
62589;DHT22;58504;48.770;9.148;2022-07-03T06:45:41;24.60;54.80
62589;DHT22;58504;48.770;9.148;2022-07-03T06:48:08;24.70;54.40
62589;DHT22;58504;48.770;9.148;2022-07-03T06:50:34;24.90;54.10
62589;DHT22;58504;48.770;9.148;2022-07-03T06:53:01;25.10;53.60
62589;DHT22;58504;48.770;9.148;2022-07-03T06:55:29;25.30;53.00
62589;DHT22;58504;48.770;9.148;2022-07-03T06:57:56;25.50;52.50
62589;DHT22;58504;48.770;9.148;2022-07-03T07:00:23;25.80;52.00
62589;DHT22;58504;48.770;9.148;2022-07-03T07:02:50;26.00;51.40
62589;DHT22;58504;48.770;9.148;2022-07-03T07:05:16;26.20;50.90
62589;DHT22;58504;48.770;9.148;2022-07-03T07:07:43;26.40;50.40
62589;DHT22;58504;48.770;9.148;2022-07-03T07:10:10;26.60;49.90
62589;DHT22;58504;48.770;9.148;2022-07-03T07:12:38;26.80;49.50
62589;DHT22;58504;48.770;9.148;2022-07-03T07:15:06;27.00;49.10
62589;DHT22;58504;48.770;9.148;2022-07-03T07:17:33;27.20;48.60
62589;DHT22;58504;48.770;9.148;2022-07-03T07:20:00;27.40;48.20
62589;DHT22;58504;48.770;9.148;2022-07-03T07:22:27;27.60;47.70
62589;DHT22;58504;48.770;9.148;2022-07-03T07:24:54;27.80;47.20
62589;DHT22;58504;48.770;9.148;2022-07-03T07:27:21;28.00;46.90
62589;DHT22;58504;48.770;9.148;2022-07-03T07:29:49;28.20;46.40
62589;DHT22;58504;48.770;9.148;2022-07-03T07:32:16;28.40;46.00
62589;DHT22;58504;48.770;9.148;2022-07-03T07:34:42;28.60;45.60
62589;DHT22;58504;48.770;9.148;2022-07-03T07:37:09;28.70;45.00
62589;DHT22;58504;48.770;9.148;2022-07-03T07:39:36;28.80;44.80
62589;DHT22;58504;48.770;9.148;2022-07-03T07:42:03;29.10;44.50
62589;DHT22;58504;48.770;9.148;2022-07-03T07:44:30;29.30;44.10
62589;DHT22;58504;48.770;9.148;2022-07-03T07:46:58;29.40;43.70
62589;DHT22;58504;48.770;9.148;2022-07-03T07:49:25;29.50;43.50
62589;DHT22;58504;48.770;9.148;2022-07-03T07:51:52;29.60;43.10
62589;DHT22;58504;48.770;9.148;2022-07-03T07:54:19;29.70;43.50
62589;DHT22;58504;48.770;9.148;2022-07-03T07:56:45;29.70;42.80
62589;DHT22;58504;48.770;9.148;2022-07-03T07:59:12;29.80;42.60
62589;DHT22;58504;48.770;9.148;2022-07-03T08:01:39;30.00;42.30
62589;DHT22;58504;48.770;9.148;2022-07-03T08:04:24;30.10;42.00
62589;DHT22;58504;48.770;9.148;2022-07-03T08:07:09;30.20;41.80
62589;DHT22;58504;48.770;9.148;2022-07-03T08:09:36;30.50;41.30
62589;DHT22;58504;48.770;9.148;2022-07-03T08:12:03;30.60;40.80
62589;DHT22;58504;48.770;9.148;2022-07-03T08:14:30;30.90;40.30
62589;DHT22;58504;48.770;9.148;2022-07-03T08:16:57;31.20;39.90
62589;DHT22;58504;48.770;9.148;2022-07-03T08:19:25;31.60;39.20
62589;DHT22;58504;48.770;9.148;2022-07-03T08:21:52;31.90;38.40
62589;DHT22;58504;48.770;9.148;2022-07-03T08:24:19;32.20;37.90
62589;DHT22;58504;48.770;9.148;2022-07-03T08:26:46;32.10;37.70
62589;DHT22;58504;48.770;9.148;2022-07-03T08:29:12;32.40;37.60
62589;DHT22;58504;48.770;9.148;2022-07-03T08:31:39;32.40;37.10
62589;DHT22;58504;48.770;9.148;2022-07-03T08:34:06;32.30;37.30
62589;DHT22;58504;48.770;9.148;2022-07-03T08:36:35;32.40;37.30
62589;DHT22;58504;48.770;9.148;2022-07-03T08:39:03;32.60;36.80
62589;DHT22;58504;48.770;9.148;2022-07-03T08:41:30;32.50;37.00
62589;DHT22;58504;48.770;9.148;2022-07-03T08:43:59;32.70;36.80
62589;DHT22;58504;48.770;9.148;2022-07-03T08:46:26;32.60;36.80
62589;DHT22;58504;48.770;9.148;2022-07-03T08:48:58;32.50;36.80
62589;DHT22;58504;48.770;9.148;2022-07-03T08:51:26;32.30;37.10
62589;DHT22;58504;48.770;9.148;2022-07-03T08:53:55;32.10;37.50
62589;DHT22;58504;48.770;9.148;2022-07-03T08:56:22;31.50;38.30
62589;DHT22;58504;48.770;9.148;2022-07-03T08:58:49;31.10;39.20
62589;DHT22;58504;48.770;9.148;2022-07-03T09:01:18;30.60;40.20
62589;DHT22;58504;48.770;9.148;2022-07-03T09:03:45;30.10;41.00
62589;DHT22;58504;48.770;9.148;2022-07-03T09:06:13;29.80;41.70
62589;DHT22;58504;48.770;9.148;2022-07-03T09:08:40;29.50;42.40
62589;DHT22;58504;48.770;9.148;2022-07-03T09:11:10;29.20;43.20
62589;DHT22;58504;48.770;9.148;2022-07-03T09:13:37;28.90;43.70
62589;DHT22;58504;48.770;9.148;2022-07-03T09:16:04;28.60;44.40
62589;DHT22;58504;48.770;9.148;2022-07-03T09:18:38;28.40;44.80
62589;DHT22;58504;48.770;9.148;2022-07-03T09:21:06;28.20;45.40
62589;DHT22;58504;48.770;9.148;2022-07-03T09:23:38;28.00;45.80
62589;DHT22;58504;48.770;9.148;2022-07-03T09:26:06;27.80;46.20
62589;DHT22;58504;48.770;9.148;2022-07-03T09:28:44;27.60;46.70
62589;DHT22;58504;48.770;9.148;2022-07-03T09:31:13;27.50;47.10
62589;DHT22;58504;48.770;9.148;2022-07-03T09:33:57;27.30;47.40
62589;DHT22;58504;48.770;9.148;2022-07-03T09:36:38;27.10;47.80
62589;DHT22;58504;48.770;9.148;2022-07-03T09:39:16;27.00;48.10
62589;DHT22;58504;48.770;9.148;2022-07-03T09:41:54;26.90;48.50
62589;DHT22;58504;48.770;9.148;2022-07-03T09:44:34;26.70;48.70
62589;DHT22;58504;48.770;9.148;2022-07-03T09:47:12;26.70;49.10
62589;DHT22;58504;48.770;9.148;2022-07-03T09:49:50;26.50;49.30
62589;DHT22;58504;48.770;9.148;2022-07-03T09:52:28;26.50;49.60
62589;DHT22;58504;48.770;9.148;2022-07-03T09:54:56;26.30;49.70
62589;DHT22;58504;48.770;9.148;2022-07-03T09:57:23;26.30;49.90
62589;DHT22;58504;48.770;9.148;2022-07-03T10:00:08;26.20;50.00
62589;DHT22;58504;48.770;9.148;2022-07-03T10:02:40;26.20;50.20
62589;DHT22;58504;48.770;9.148;2022-07-03T10:05:17;26.10;50.40
62589;DHT22;58504;48.770;9.148;2022-07-03T10:07:51;26.00;50.50
62589;DHT22;58504;48.770;9.148;2022-07-03T10:10:20;26.00;50.70
62589;DHT22;58504;48.770;9.148;2022-07-03T10:12:48;25.90;50.80
62589;DHT22;58504;48.770;9.148;2022-07-03T10:15:17;25.80;51.00
62589;DHT22;58504;48.770;9.148;2022-07-03T10:17:48;25.80;51.20
62589;DHT22;58504;48.770;9.148;2022-07-03T10:20:21;25.80;51.40
62589;DHT22;58504;48.770;9.148;2022-07-03T10:22:50;25.70;51.50
62589;DHT22;58504;48.770;9.148;2022-07-03T10:25:17;25.60;51.60
62589;DHT22;58504;48.770;9.148;2022-07-03T10:27:44;25.60;51.70
62589;DHT22;58504;48.770;9.148;2022-07-03T10:30:13;25.60;51.80
62589;DHT22;58504;48.770;9.148;2022-07-03T10:32:44;25.50;51.90
62589;DHT22;58504;48.770;9.148;2022-07-03T10:35:13;25.50;52.60
62589;DHT22;58504;48.770;9.148;2022-07-03T10:37:47;25.40;52.10
62589;DHT22;58504;48.770;9.148;2022-07-03T10:40:24;25.40;52.20
62589;DHT22;58504;48.770;9.148;2022-07-03T10:43:15;25.40;52.20
62589;DHT22;58504;48.770;9.148;2022-07-03T10:46:14;25.30;52.40
62589;DHT22;58504;48.770;9.148;2022-07-03T10:48:59;25.30;52.40
62589;DHT22;58504;48.770;9.148;2022-07-03T10:51:27;25.30;52.50
62589;DHT22;58504;48.770;9.148;2022-07-03T10:54:14;25.30;52.60
62589;DHT22;58504;48.770;9.148;2022-07-03T10:57:07;25.30;52.70
62589;DHT22;58504;48.770;9.148;2022-07-03T11:02:44;25.20;52.90
62589;DHT22;58504;48.770;9.148;2022-07-03T11:05:23;25.20;52.90
62589;DHT22;58504;48.770;9.148;2022-07-03T11:08:07;25.20;52.90
62589;DHT22;58504;48.770;9.148;2022-07-03T11:10:36;25.20;53.00
62589;DHT22;58504;48.770;9.148;2022-07-03T11:13:16;25.20;52.90
62589;DHT22;58504;48.770;9.148;2022-07-03T11:15:52;25.20;53.00
62589;DHT22;58504;48.770;9.148;2022-07-03T11:18:39;25.20;53.10
62589;DHT22;58504;48.770;9.148;2022-07-03T11:21:21;25.20;53.20
62589;DHT22;58504;48.770;9.148;2022-07-03T11:24:12;25.20;53.40
62589;DHT22;58504;48.770;9.148;2022-07-03T11:26:40;25.20;53.40
62589;DHT22;58504;48.770;9.148;2022-07-03T11:29:25;25.20;53.30
62589;DHT22;58504;48.770;9.148;2022-07-03T11:31:52;25.20;53.40
62589;DHT22;58504;48.770;9.148;2022-07-03T11:34:19;25.10;53.40
62589;DHT22;58504;48.770;9.148;2022-07-03T11:36:48;25.10;53.60
62589;DHT22;58504;48.770;9.148;2022-07-03T11:39:18;25.10;53.60
62589;DHT22;58504;48.770;9.148;2022-07-03T11:41:46;25.10;53.70
62589;DHT22;58504;48.770;9.148;2022-07-03T11:44:18;25.10;53.70
62589;DHT22;58504;48.770;9.148;2022-07-03T11:46:51;25.10;53.90
62589;DHT22;58504;48.770;9.148;2022-07-03T11:49:20;25.10;53.90
62589;DHT22;58504;48.770;9.148;2022-07-03T11:51:57;25.10;54.00
62589;DHT22;58504;48.770;9.148;2022-07-03T11:54:24;25.10;54.10
62589;DHT22;58504;48.770;9.148;2022-07-03T11:56:51;25.10;54.10
62589;DHT22;58504;48.770;9.148;2022-07-03T11:59:18;25.00;54.20
62589;DHT22;58504;48.770;9.148;2022-07-03T12:01:45;25.00;54.20
62589;DHT22;58504;48.770;9.148;2022-07-03T12:04:13;25.10;54.30
62589;DHT22;58504;48.770;9.148;2022-07-03T12:06:42;25.00;54.30
62589;DHT22;58504;48.770;9.148;2022-07-03T12:09:15;25.00;54.30
62589;DHT22;58504;48.770;9.148;2022-07-03T12:11:55;25.10;54.30
62589;DHT22;58504;48.770;9.148;2022-07-03T12:14:39;25.10;54.30
62589;DHT22;58504;48.770;9.148;2022-07-03T12:17:08;25.10;54.30
62589;DHT22;58504;48.770;9.148;2022-07-03T12:19:35;25.00;54.30
62589;DHT22;58504;48.770;9.148;2022-07-03T12:22:04;25.00;54.30
62589;DHT22;58504;48.770;9.148;2022-07-03T12:24:32;25.00;54.40
62589;DHT22;58504;48.770;9.148;2022-07-03T12:27:02;25.00;54.40
62589;DHT22;58504;48.770;9.148;2022-07-03T12:29:30;25.00;54.40
62589;DHT22;58504;48.770;9.148;2022-07-03T12:31:57;25.10;54.40
62589;DHT22;58504;48.770;9.148;2022-07-03T12:34:24;25.10;54.30
62589;DHT22;58504;48.770;9.148;2022-07-03T12:36:56;25.10;54.30
62589;DHT22;58504;48.770;9.148;2022-07-03T12:39:23;25.10;54.30
62589;DHT22;58504;48.770;9.148;2022-07-03T12:41:51;25.10;54.20
62589;DHT22;58504;48.770;9.148;2022-07-03T12:44:19;25.20;54.10
62589;DHT22;58504;48.770;9.148;2022-07-03T12:46:46;25.20;54.10
62589;DHT22;58504;48.770;9.148;2022-07-03T12:49:14;25.20;54.00
62589;DHT22;58504;48.770;9.148;2022-07-03T12:51:43;25.20;53.90
62589;DHT22;58504;48.770;9.148;2022-07-03T12:54:11;25.30;54.00
62589;DHT22;58504;48.770;9.148;2022-07-03T12:56:39;25.30;53.90
62589;DHT22;58504;48.770;9.148;2022-07-03T13:02:00;25.30;53.70
62589;DHT22;58504;48.770;9.148;2022-07-03T13:04:33;25.30;53.70
62589;DHT22;58504;48.770;9.148;2022-07-03T13:07:02;25.40;53.70
62589;DHT22;58504;48.770;9.148;2022-07-03T13:09:29;25.40;53.60
62589;DHT22;58504;48.770;9.148;2022-07-03T13:11:56;25.40;53.60
62589;DHT22;58504;48.770;9.148;2022-07-03T13:14:24;25.30;53.70
62589;DHT22;58504;48.770;9.148;2022-07-03T13:16:53;25.30;53.70
62589;DHT22;58504;48.770;9.148;2022-07-03T13:19:21;25.30;53.80
62589;DHT22;58504;48.770;9.148;2022-07-03T13:21:49;25.30;53.80
62589;DHT22;58504;48.770;9.148;2022-07-03T13:24:17;25.30;53.80
62589;DHT22;58504;48.770;9.148;2022-07-03T13:26:44;25.30;53.70
62589;DHT22;58504;48.770;9.148;2022-07-03T13:29:11;25.40;53.70
62589;DHT22;58504;48.770;9.148;2022-07-03T13:31:39;25.40;53.60
62589;DHT22;58504;48.770;9.148;2022-07-03T13:34:06;25.30;53.60
62589;DHT22;58504;48.770;9.148;2022-07-03T13:36:33;25.30;53.70
62589;DHT22;58504;48.770;9.148;2022-07-03T13:39:00;25.30;53.70
62589;DHT22;58504;48.770;9.148;2022-07-03T13:41:27;25.30;53.80
62589;DHT22;58504;48.770;9.148;2022-07-03T13:43:54;25.30;53.90
62589;DHT22;58504;48.770;9.148;2022-07-03T13:46:22;25.30;54.00
62589;DHT22;58504;48.770;9.148;2022-07-03T13:48:51;25.30;54.10
62589;DHT22;58504;48.770;9.148;2022-07-03T13:51:19;25.30;54.20
62589;DHT22;58504;48.770;9.148;2022-07-03T13:53:46;25.30;54.30
62589;DHT22;58504;48.770;9.148;2022-07-03T13:56:14;25.30;54.40
62589;DHT22;58504;48.770;9.148;2022-07-03T13:58:40;25.30;54.30
62589;DHT22;58504;48.770;9.148;2022-07-03T14:01:07;25.30;54.40
62589;DHT22;58504;48.770;9.148;2022-07-03T14:03:34;25.30;54.50
62589;DHT22;58504;48.770;9.148;2022-07-03T14:06:02;25.30;54.50
62589;DHT22;58504;48.770;9.148;2022-07-03T14:08:29;25.30;54.60
62589;DHT22;58504;48.770;9.148;2022-07-03T14:10:56;25.30;54.50
62589;DHT22;58504;48.770;9.148;2022-07-03T14:13:23;25.30;54.60
62589;DHT22;58504;48.770;9.148;2022-07-03T14:15:49;25.20;54.50
62589;DHT22;58504;48.770;9.148;2022-07-03T14:18:16;25.30;54.60
62589;DHT22;58504;48.770;9.148;2022-07-03T14:20:43;25.20;54.60
62589;DHT22;58504;48.770;9.148;2022-07-03T14:23:11;25.20;54.60
62589;DHT22;58504;48.770;9.148;2022-07-03T14:25:38;25.30;54.70
62589;DHT22;58504;48.770;9.148;2022-07-03T14:28:05;25.20;54.70
62589;DHT22;58504;48.770;9.148;2022-07-03T14:30:49;25.20;54.80
62589;DHT22;58504;48.770;9.148;2022-07-03T14:33:33;25.20;54.80
62589;DHT22;58504;48.770;9.148;2022-07-03T14:36:00;25.20;55.00
62589;DHT22;58504;48.770;9.148;2022-07-03T14:38:28;25.10;55.60
62589;DHT22;58504;48.770;9.148;2022-07-03T14:40:55;25.10;55.10
62589;DHT22;58504;48.770;9.148;2022-07-03T14:43:22;25.00;55.10
62589;DHT22;58504;48.770;9.148;2022-07-03T14:45:49;25.00;55.10
62589;DHT22;58504;48.770;9.148;2022-07-03T14:48:16;25.00;55.20
62589;DHT22;58504;48.770;9.148;2022-07-03T14:50:43;24.90;55.20
62589;DHT22;58504;48.770;9.148;2022-07-03T14:53:10;24.90;55.30
62589;DHT22;58504;48.770;9.148;2022-07-03T14:55:40;24.90;55.30
62589;DHT22;58504;48.770;9.148;2022-07-03T14:58:15;24.90;55.40
62589;DHT22;58504;48.770;9.148;2022-07-03T15:00:47;24.90;55.40
62589;DHT22;58504;48.770;9.148;2022-07-03T15:03:17;24.80;55.40
62589;DHT22;58504;48.770;9.148;2022-07-03T15:05:46;24.80;55.40
62589;DHT22;58504;48.770;9.148;2022-07-03T15:08:47;24.80;55.50
62589;DHT22;58504;48.770;9.148;2022-07-03T15:11:20;24.80;55.50
62589;DHT22;58504;48.770;9.148;2022-07-03T15:14:05;24.70;55.50
62589;DHT22;58504;48.770;9.148;2022-07-03T15:16:34;24.70;55.50
62589;DHT22;58504;48.770;9.148;2022-07-03T15:19:01;24.70;55.50
62589;DHT22;58504;48.770;9.148;2022-07-03T15:21:30;24.70;55.60
62589;DHT22;58504;48.770;9.148;2022-07-03T15:24:00;24.70;55.60
62589;DHT22;58504;48.770;9.148;2022-07-03T15:26:30;24.70;55.60
62589;DHT22;58504;48.770;9.148;2022-07-03T15:28:59;24.70;55.70
62589;DHT22;58504;48.770;9.148;2022-07-03T15:31:28;24.70;55.60
62589;DHT22;58504;48.770;9.148;2022-07-03T15:33:55;24.70;55.60
62589;DHT22;58504;48.770;9.148;2022-07-03T15:36:26;24.70;55.70
62589;DHT22;58504;48.770;9.148;2022-07-03T15:39:02;24.70;55.70
62589;DHT22;58504;48.770;9.148;2022-07-03T15:41:52;24.70;55.70
62589;DHT22;58504;48.770;9.148;2022-07-03T15:44:27;24.70;55.80
62589;DHT22;58504;48.770;9.148;2022-07-03T15:47:12;24.70;55.80
62589;DHT22;58504;48.770;9.148;2022-07-03T15:49:43;24.60;55.80
62589;DHT22;58504;48.770;9.148;2022-07-03T15:52:16;24.60;55.80
62589;DHT22;58504;48.770;9.148;2022-07-03T15:54:55;24.60;55.80